Time;durP1;ratioP1;P1;durP2;ratioP2;P2;SDS_P1;SDS_P2;PMS_P1;PMS_P2;Temp;Humidity;BMP_temperature;BMP_pressure;BME280_temperature;BME280_humidity;BME280_pressure;Samples;Min_cycle;Max_cycle;Signal;HPM_P1;HPM_P2
2022/04/23 00:01:43;;;;;;;11.05;5.32;;;;;;;;;;4971072;28;20432;-65
2022/04/23 00:04:10;;;;;;;11.88;6.32;;;;;;;;;;4971219;28;20403;-64
2022/04/23 00:06:36;;;;;;;13.95;5.47;;;;;;;;;;4970197;28;20388;-64
2022/04/23 00:09:01;;;;;;;9.68;5.25;;;;;;;;;;4970726;28;20413;-65
2022/04/23 00:11:27;;;;;;;10.95;6.13;;;;;;;;;;4969577;28;20029;-64
2022/04/23 00:13:52;;;;;;;14.48;6.60;;;;;;;;;;4970663;28;20324;-65
2022/04/23 00:16:19;;;;;;;9.70;5.80;;;;;;;;;;4970627;28;20033;-65
2022/04/23 00:18:45;;;;;;;9.80;5.53;;;;;;;;;;4970710;28;20532;-65
2022/04/23 00:21:10;;;;;;;9.10;5.22;;;;;;;;;;4970354;28;20437;-65
2022/04/23 00:23:36;;;;;;;11.32;4.97;;;;;;;;;;4970344;28;20409;-66
2022/04/23 00:26:02;;;;;;;12.45;5.70;;;;;;;;;;4970526;28;20133;-64
2022/04/23 00:28:27;;;;;;;10.82;6.25;;;;;;;;;;4970502;28;20456;-64
2022/04/23 00:30:52;;;;;;;10.60;5.68;;;;;;;;;;4970534;28;20499;-65
2022/04/23 00:33:21;;;;;;;9.88;5.65;;;;;;;;;;4970477;28;20440;-65
2022/04/23 00:35:48;;;;;;;9.13;5.15;;;;;;;;;;4970145;28;20495;-65
2022/04/23 00:38:15;;;;;;;10.65;5.57;;;;;;;;;;4969885;28;20441;-64
2022/04/23 00:40:40;;;;;;;9.85;5.45;;;;;;;;;;4969963;28;20090;-64
2022/04/23 00:43:10;;;;;;;9.00;5.15;;;;;;;;;;4969862;28;20456;-65
2022/04/23 00:45:36;;;;;;;13.70;6.13;;;;;;;;;;4969822;28;20095;-65
2022/04/23 00:48:01;;;;;;;12.20;5.47;;;;;;;;;;4970161;28;20481;-66
2022/04/23 00:50:26;;;;;;;13.02;6.00;;;;;;;;;;4969884;28;20527;-64
2022/04/23 00:53:02;;;;;;;10.27;5.75;;;;;;;;;;4970305;28;20443;-65
2022/04/23 00:55:28;;;;;;;14.73;5.68;;;;;;;;;;4970200;28;20365;-66
2022/04/23 00:57:53;;;;;;;11.57;5.82;;;;;;;;;;4969720;28;20407;-65
2022/04/23 01:00:19;;;;;;;11.73;5.97;;;;;;;;;;4968421;28;20388;-64
2022/04/23 01:02:45;;;;;;;11.48;5.18;;;;;;;;;;4969441;28;20033;-65
2022/04/23 01:05:10;;;;;;;12.57;5.75;;;;;;;;;;4969844;28;20375;-65
2022/04/23 01:07:45;;;;;;;8.95;5.32;;;;;;;;;;4969537;28;20071;-65
2022/04/23 01:10:11;;;;;;;10.70;5.25;;;;;;;;;;4969344;28;20061;-64
2022/04/23 01:12:38;;;;;;;10.50;5.63;;;;;;;;;;4969977;28;20109;-65
2022/04/23 01:15:05;;;;;;;11.80;5.82;;;;;;;;;;4969203;28;20025;-65
2022/04/23 01:17:31;;;;;;;11.88;5.53;;;;;;;;;;4969860;28;20072;-65
2022/04/23 01:19:56;;;;;;;9.32;5.70;;;;;;;;;;4969528;28;20026;-64
2022/04/23 01:22:25;;;;;;;9.55;4.78;;;;;;;;;;4968854;28;20468;-64
2022/04/23 01:24:51;;;;;;;;;;;;;;;;;;4970001;28;20447;-65
2022/04/23 01:27:16;;;;;;;9.65;5.00;;;;;;;;;;4969221;28;19913;-65
2022/04/23 01:29:42;;;;;;;11.18;5.65;;;;;;;;;;4969125;28;20029;-64
2022/04/23 01:32:07;;;;;;;10.18;5.45;;;;;;;;;;4969456;28;20320;-65
2022/04/23 01:34:33;;;;;;;11.95;5.20;;;;;;;;;;4969187;28;20464;-65
2022/04/23 01:36:58;;;;;;;10.27;4.97;;;;;;;;;;4970484;28;20294;-66
2022/04/23 01:39:23;;;;;;;10.10;5.30;;;;;;;;;;4951537;28;20457;-65
2022/04/23 01:41:49;;;;;;;8.48;5.38;;;;;;;;;;4970746;28;20444;-65
2022/04/23 01:44:15;;;;;;;10.80;5.53;;;;;;;;;;4969279;28;20324;-65
2022/04/23 01:46:40;;;;;;;10.18;5.18;;;;;;;;;;4958746;28;20303;-65
2022/04/23 01:49:05;;;;;;;9.32;5.25;;;;;;;;;;4949186;28;20421;-64
2022/04/23 01:51:31;;;;;;;8.95;4.97;;;;;;;;;;4949587;28;20511;-64
2022/04/23 01:53:56;;;;;;;10.98;5.57;;;;;;;;;;4949401;28;20026;-64
2022/04/23 01:56:22;;;;;;;9.50;5.28;;;;;;;;;;4949857;28;20318;-66
2022/04/23 01:58:47;;;;;;;8.68;4.53;;;;;;;;;;4950400;28;20496;-64
2022/04/23 02:01:12;;;;;;;9.25;4.82;;;;;;;;;;4949505;28;20504;-64
2022/04/23 02:03:38;;;;;;;8.73;5.00;;;;;;;;;;4949527;28;20425;-65
2022/04/23 02:06:04;;;;;;;10.13;4.78;;;;;;;;;;4949176;28;20512;-65
2022/04/23 02:08:29;;;;;;;8.77;4.55;;;;;;;;;;4950441;28;20334;-65
2022/04/23 02:10:54;;;;;;;9.40;4.88;;;;;;;;;;4949955;28;20504;-65
2022/04/23 02:13:20;;;;;;;12.45;5.95;;;;;;;;;;4949212;28;20488;-65
2022/04/23 02:15:45;;;;;;;7.07;4.55;;;;;;;;;;4948984;28;20531;-65
2022/04/23 02:18:11;;;;;;;7.78;4.32;;;;;;;;;;4949659;28;20412;-65
2022/04/23 02:20:36;;;;;;;8.13;5.03;;;;;;;;;;4949114;28;20452;-65
2022/04/23 02:23:02;;;;;;;9.75;4.40;;;;;;;;;;4949577;28;20376;-64
2022/04/23 02:25:27;;;;;;;9.35;5.10;;;;;;;;;;4949397;28;20057;-65
2022/04/23 02:27:53;;;;;;;9.80;5.00;;;;;;;;;;4950441;28;20045;-64
2022/04/23 02:30:20;;;;;;;9.20;4.38;;;;;;;;;;4949823;28;20467;-65
2022/04/23 02:32:45;;;;;;;11.13;5.00;;;;;;;;;;4949106;28;20361;-64
2022/04/23 02:35:12;;;;;;;9.32;5.07;;;;;;;;;;4952563;28;20448;-65
2022/04/23 02:37:37;;;;;;;9.68;5.13;;;;;;;;;;4953583;28;20369;-65
2022/04/23 02:40:04;;;;;;;8.27;4.50;;;;;;;;;;4952878;28;20455;-65
2022/04/23 02:42:30;;;;;;;9.35;4.93;;;;;;;;;;4952461;28;20543;-64
2022/04/23 02:45:00;;;;;;;8.80;4.50;;;;;;;;;;4954066;28;20520;-64
2022/04/23 02:47:29;;;;;;;8.43;4.45;;;;;;;;;;4952406;28;20318;-65
2022/04/23 02:49:54;;;;;;;11.50;5.38;;;;;;;;;;4952795;28;20404;-65
2022/04/23 02:52:20;;;;;;;8.50;4.78;;;;;;;;;;4953982;28;20372;-66
2022/04/23 02:54:45;;;;;;;9.70;5.65;;;;;;;;;;4952611;28;20372;-64
2022/04/23 02:57:11;;;;;;;10.30;4.95;;;;;;;;;;4952630;28;20125;-64
2022/04/23 02:59:37;;;;;;;8.93;4.63;;;;;;;;;;4952413;28;20145;-65
2022/04/23 03:02:03;;;;;;;10.55;4.80;;;;;;;;;;4952051;28;20520;-64
2022/04/23 03:04:29;;;;;;;11.07;4.15;;;;;;;;;;4952894;28;20026;-65
2022/04/23 03:06:55;;;;;;;6.95;4.18;;;;;;;;;;4951503;28;20504;-64
2022/04/23 03:09:21;;;;;;;8.75;4.65;;;;;;;;;;4952023;28;20477;-65
2022/04/23 03:11:47;;;;;;;9.05;5.22;;;;;;;;;;4951714;28;20465;-64
2022/04/23 03:14:12;;;;;;;11.73;5.68;;;;;;;;;;4952038;28;20536;-65
2022/04/23 03:16:38;;;;;;;8.63;5.43;;;;;;;;;;4952006;28;20348;-65
2022/04/23 03:19:03;;;;;;;10.23;4.82;;;;;;;;;;4951932;28;20033;-64
2022/04/23 03:21:28;;;;;;;7.95;4.93;;;;;;;;;;4952306;28;20404;-65
2022/04/23 03:23:54;;;;;;;8.45;4.55;;;;;;;;;;4951672;28;20432;-64
2022/04/23 03:26:19;;;;;;;7.70;4.47;;;;;;;;;;4952078;28;20449;-65
2022/04/23 03:28:44;;;;;;;7.10;4.15;;;;;;;;;;4951905;28;20346;-65
2022/04/23 03:31:10;;;;;;;11.27;4.82;;;;;;;;;;4953033;28;20425;-65
2022/04/23 03:33:35;;;;;;;6.90;4.50;;;;;;;;;;4952156;28;20133;-64
2022/04/23 03:36:02;;;;;;;9.23;5.07;;;;;;;;;;4951980;28;20377;-64
2022/04/23 03:38:27;;;;;;;7.95;4.47;;;;;;;;;;4934108;28;20337;-65
2022/04/23 03:40:55;;;;;;;9.65;5.15;;;;;;;;;;4952670;28;20400;-66
2022/04/23 03:43:22;;;;;;;7.90;5.07;;;;;;;;;;4951948;28;20094;-66
2022/04/23 03:45:47;;;;;;;7.25;4.40;;;;;;;;;;4950657;28;20345;-65
2022/04/23 03:48:14;;;;;;;8.90;4.65;;;;;;;;;;4951318;28;20322;-64
2022/04/23 03:50:40;;;;;;;10.18;5.72;;;;;;;;;;4951336;28;20030;-65
2022/04/23 03:53:05;;;;;;;7.50;4.28;;;;;;;;;;4933740;28;20457;-64
2022/04/23 03:55:31;;;;;;;9.82;5.35;;;;;;;;;;4951964;28;20333;-65
2022/04/23 03:57:56;;;;;;;8.85;4.93;;;;;;;;;;4951283;28;20349;-64
2022/04/23 04:00:22;;;;;;;9.52;5.25;;;;;;;;;;4951401;28;20511;-65
2022/04/23 04:02:49;;;;;;;8.35;4.75;;;;;;;;;;4951158;28;20453;-65
2022/04/23 04:05:14;;;;;;;8.77;4.43;;;;;;;;;;4950764;28;20104;-66
2022/04/23 04:07:42;;;;;;;9.90;4.63;;;;;;;;;;4950858;28;20046;-65
2022/04/23 04:10:09;;;;;;;7.88;5.03;;;;;;;;;;4950690;28;20345;-64
2022/04/23 04:12:34;;;;;;;8.45;5.20;;;;;;;;;;4951399;28;20506;-65
2022/04/23 04:14:59;;;;;;;11.85;5.75;;;;;;;;;;4952290;28;20410;-64
2022/04/23 04:17:25;;;;;;;8.00;5.10;;;;;;;;;;4950997;28;20052;-65
2022/04/23 04:19:51;;;;;;;10.20;5.90;;;;;;;;;;4951708;28;20033;-65
2022/04/23 04:22:16;;;;;;;7.88;4.80;;;;;;;;;;4951262;28;20392;-65
2022/04/23 04:24:41;;;;;;;10.13;5.22;;;;;;;;;;4950778;28;20508;-65
2022/04/23 04:27:07;;;;;;;8.70;4.95;;;;;;;;;;4951456;28;20381;-64
2022/04/23 04:29:32;;;;;;;10.30;5.30;;;;;;;;;;4933328;28;20349;-64
2022/04/23 04:31:57;;;;;;;10.20;5.50;;;;;;;;;;4951953;28;20426;-65
2022/04/23 04:34:30;;;;;;;8.18;5.10;;;;;;;;;;4950477;28;20053;-65
2022/04/23 04:37:07;;;;;;;12.07;5.60;;;;;;;;;;4950415;28;20462;-65
2022/04/23 04:39:33;;;;;;;13.15;5.47;;;;;;;;;;4950422;28;20534;-65
2022/04/23 04:41:59;;;;;;;12.38;5.82;;;;;;;;;;4933403;28;20077;-65
2022/04/23 04:44:24;;;;;;;11.05;5.47;;;;;;;;;;4950319;28;20052;-65
2022/04/23 04:46:49;;;;;;;10.00;5.60;;;;;;;;;;4950336;28;20026;-66
2022/04/23 04:49:14;;;;;;;10.40;5.78;;;;;;;;;;4951452;28;20041;-65
2022/04/23 04:51:40;;;;;;;9.35;5.72;;;;;;;;;;4950669;28;20048;-65
2022/04/23 04:54:07;;;;;;;10.48;5.40;;;;;;;;;;4951391;28;20349;-66
2022/04/23 04:56:33;;;;;;;17.58;6.05;;;;;;;;;;4950274;28;20107;-65
2022/04/23 04:58:58;;;;;;;12.75;6.60;;;;;;;;;;4951196;28;20429;-65
2022/04/23 05:01:24;;;;;;;14.73;6.70;;;;;;;;;;4950429;28;20464;-65
2022/04/23 05:03:50;;;;;;;12.88;6.10;;;;;;;;;;4950095;28;20342;-65
2022/04/23 05:06:15;;;;;;;14.90;6.60;;;;;;;;;;4949325;28;20452;-65
2022/04/23 05:08:41;;;;;;;15.05;6.90;;;;;;;;;;4949950;28;20353;-64
2022/04/23 05:11:06;;;;;;;14.85;7.07;;;;;;;;;;4950084;28;20408;-65
2022/04/23 05:13:32;;;;;;;13.75;6.25;;;;;;;;;;4951444;28;20445;-65
2022/04/23 05:15:58;;;;;;;18.02;7.22;;;;;;;;;;4950735;28;20084;-64
2022/04/23 05:18:23;;;;;;;12.35;5.95;;;;;;;;;;4949962;28;20029;-66
2022/04/23 05:20:49;;;;;;;11.95;6.75;;;;;;;;;;4949918;28;20022;-65
2022/04/23 05:23:14;;;;;;;10.05;6.65;;;;;;;;;;4950045;28;20349;-65
2022/04/23 05:25:40;;;;;;;12.35;6.68;;;;;;;;;;4950251;28;20353;-66
2022/04/23 05:28:05;;;;;;;15.95;6.90;;;;;;;;;;4950164;28;20410;-65
2022/04/23 05:30:31;;;;;;;12.65;6.85;;;;;;;;;;4949803;28;20453;-64
2022/04/23 05:32:56;;;;;;;13.68;6.63;;;;;;;;;;4932627;28;20444;-65
2022/04/23 05:35:21;;;;;;;14.52;6.80;;;;;;;;;;4949632;28;20346;-65
2022/04/23 05:37:47;;;;;;;12.45;6.15;;;;;;;;;;4950542;28;20417;-65
2022/04/23 05:40:12;;;;;;;11.55;6.32;;;;;;;;;;4950144;28;20030;-65
2022/04/23 05:42:38;;;;;;;11.77;6.88;;;;;;;;;;4949473;28;20397;-66
2022/04/23 05:45:03;;;;;;;16.52;7.50;;;;;;;;;;4951488;28;20389;-66
2022/04/23 05:47:28;;;;;;;13.25;6.78;;;;;;;;;;4952393;28;20349;-65
2022/04/23 05:49:54;;;;;;;14.05;7.38;;;;;;;;;;4949819;28;20314;-65
2022/04/23 05:52:19;;;;;;;14.00;6.63;;;;;;;;;;4951060;28;20449;-65
2022/04/23 05:54:44;;;;;;;14.30;6.95;;;;;;;;;;4949195;28;20361;-65
2022/04/23 05:57:10;;;;;;;13.65;7.15;;;;;;;;;;4949622;28;20052;-66
2022/04/23 05:59:35;;;;;;;15.30;7.50;;;;;;;;;;4949442;28;20334;-65
2022/04/23 06:02:00;;;;;;;13.60;7.28;;;;;;;;;;4949354;28;20322;-65
2022/04/23 06:04:27;;;;;;;13.10;6.90;;;;;;;;;;4932197;28;20425;-65
2022/04/23 06:06:52;;;;;;;13.25;6.60;;;;;;;;;;4949187;28;20458;-65
2022/04/23 06:09:18;;;;;;;13.40;7.20;;;;;;;;;;4952046;28;20456;-65
2022/04/23 06:11:43;;;;;;;15.77;6.70;;;;;;;;;;4954377;28;20453;-66
2022/04/23 06:14:08;;;;;;;13.55;6.90;;;;;;;;;;4953648;28;20381;-65
2022/04/23 06:16:36;;;;;;;15.27;6.55;;;;;;;;;;4953384;28;20517;-64
2022/04/23 06:19:01;;;;;;;13.65;6.93;;;;;;;;;;4953546;28;20429;-65
2022/04/23 06:21:26;;;;;;;12.90;6.78;;;;;;;;;;4953083;28;20180;-65
2022/04/23 06:23:51;;;;;;;18.85;6.97;;;;;;;;;;4954295;28;20426;-65
2022/04/23 06:26:17;;;;;;;11.75;5.78;;;;;;;;;;4953658;28;20418;-66
2022/04/23 06:28:42;;;;;;;15.00;6.80;;;;;;;;;;4952764;28;20460;-64
2022/04/23 06:31:07;;;;;;;13.57;7.00;;;;;;;;;;4952910;28;20433;-65
2022/04/23 06:33:33;;;;;;;11.63;6.40;;;;;;;;;;4952929;28;20105;-65
2022/04/23 06:35:59;;;;;;;15.65;6.68;;;;;;;;;;4953519;28;20422;-65
2022/04/23 06:38:24;;;;;;;13.43;7.18;;;;;;;;;;4952429;28;20344;-66
2022/04/23 06:40:49;;;;;;;14.10;6.68;;;;;;;;;;4952629;28;20332;-66
2022/04/23 06:43:14;;;;;;;13.75;6.88;;;;;;;;;;4952620;28;20050;-65
2022/04/23 06:45:40;;;;;;;10.00;5.57;;;;;;;;;;4953129;28;20413;-65
2022/04/23 06:48:06;;;;;;;11.65;6.35;;;;;;;;;;4952328;28;20498;-65
2022/04/23 06:50:32;;;;;;;11.75;5.55;;;;;;;;;;4935123;28;20184;-65
2022/04/23 06:53:02;;;;;;;11.60;6.03;;;;;;;;;;4952647;28;20460;-66
2022/04/23 06:55:29;;;;;;;13.65;6.90;;;;;;;;;;4953568;28;20302;-65
2022/04/23 06:57:55;;;;;;;10.98;5.93;;;;;;;;;;4953306;28;20396;-65
2022/04/23 07:00:23;;;;;;;9.93;5.72;;;;;;;;;;4952517;28;20365;-65
2022/04/23 07:02:50;;;;;;;13.30;6.82;;;;;;;;;;4952667;28;20364;-65
2022/04/23 07:05:16;;;;;;;10.13;4.95;;;;;;;;;;4952167;28;20412;-68
2022/04/23 07:07:41;;;;;;;11.35;5.95;;;;;;;;;;4952288;28;20420;-65
2022/04/23 07:10:07;;;;;;;10.52;5.43;;;;;;;;;;4951918;28;20077;-66
2022/04/23 07:12:33;;;;;;;11.75;6.15;;;;;;;;;;4934517;28;20478;-66
2022/04/23 07:14:59;;;;;;;11.40;5.15;;;;;;;;;;4953327;28;20363;-66
2022/04/23 07:17:25;;;;;;;11.65;5.40;;;;;;;;;;4952120;28;20451;-65
2022/04/23 07:19:53;;;;;;;10.48;5.63;;;;;;;;;;4951850;28;20464;-65
2022/04/23 07:22:19;;;;;;;14.02;5.97;;;;;;;;;;4952340;28;20401;-65
2022/04/23 07:24:44;;;;;;;10.70;5.85;;;;;;;;;;4953695;28;20073;-65
2022/04/23 07:27:11;;;;;;;10.93;5.60;;;;;;;;;;4951783;28;20030;-65
2022/04/23 07:29:36;;;;;;;11.05;5.15;;;;;;;;;;4952475;28;20455;-66
2022/04/23 07:32:02;;;;;;;10.65;5.10;;;;;;;;;;4951753;28;20449;-65
2022/04/23 07:37:33;;;;;;;9.70;4.43;;;;;;;;;;4951802;28;20495;-65
2022/04/23 07:40:05;;;;;;;10.23;5.00;;;;;;;;;;4952157;28;20392;-65
2022/04/23 07:42:31;;;;;;;10.80;5.00;;;;;;;;;;4951694;28;20457;-65
2022/04/23 07:44:57;;;;;;;9.00;5.25;;;;;;;;;;4951705;28;20329;-66
2022/04/23 07:47:23;;;;;;;10.10;4.88;;;;;;;;;;4951531;28;20343;-65
2022/04/23 07:49:48;;;;;;;10.10;4.85;;;;;;;;;;4933634;28;20377;-65
2022/04/23 07:52:14;;;;;;;9.93;4.47;;;;;;;;;;4951653;28;20057;-65
2022/04/23 07:54:39;;;;;;;8.88;3.80;;;;;;;;;;4951332;28;20080;-65
2022/04/23 07:57:08;;;;;;;6.40;3.90;;;;;;;;;;4951701;28;20048;-65
2022/04/23 07:59:33;;;;;;;9.55;5.03;;;;;;;;;;4952117;28;20314;-65
2022/04/23 08:02:01;;;;;;;7.28;4.20;;;;;;;;;;4933651;28;20349;-65
2022/04/23 08:04:26;;;;;;;9.60;4.97;;;;;;;;;;4952214;28;20456;-65
2022/04/23 08:06:51;;;;;;;7.30;3.90;;;;;;;;;;4951480;28;20453;-65
2022/04/23 08:09:17;;;;;;;7.95;3.97;;;;;;;;;;4951050;28;20318;-66
2022/04/23 08:11:42;;;;;;;7.43;4.47;;;;;;;;;;4950973;28;20410;-65
2022/04/23 08:14:07;;;;;;;10.20;4.68;;;;;;;;;;4951951;28;20365;-65
2022/04/23 08:16:33;;;;;;;9.50;4.95;;;;;;;;;;4952113;28;20096;-65
2022/04/23 08:18:59;;;;;;;7.90;4.45;;;;;;;;;;4950647;28;20434;-65
2022/04/23 08:21:24;;;;;;;8.30;3.88;;;;;;;;;;4951193;28;20322;-65
2022/04/23 08:23:49;;;;;;;8.02;4.25;;;;;;;;;;4951310;28;20553;-65
2022/04/23 08:26:15;;;;;;;7.20;4.63;;;;;;;;;;4950838;28;20426;-65
2022/04/23 08:31:24;;;;;;;9.02;4.53;;;;;;;;;;4950375;28;20490;-65
2022/04/23 08:33:59;;;;;;;8.63;4.45;;;;;;;;;;4951052;28;20435;-66
2022/04/23 08:36:42;;;;;;;9.98;4.65;;;;;;;;;;4951580;28;20030;-65
2022/04/23 08:39:08;;;;;;;8.20;3.78;;;;;;;;;;4950305;28;20453;-65
2022/04/23 08:41:34;;;;;;;6.80;3.80;;;;;;;;;;4950464;28;20521;-66
2022/04/23 08:44:05;;;;;;;7.80;4.25;;;;;;;;;;4950273;28;20410;-65
2022/04/23 08:46:32;;;;;;;6.15;4.03;;;;;;;;;;4951168;28;20416;-65
2022/04/23 08:49:17;;;;;;;8.77;4.18;;;;;;;;;;4932643;28;20514;-66
2022/04/23 08:51:50;;;;;;;6.63;3.72;;;;;;;;;;4933262;28;20353;-64
2022/04/23 08:54:16;;;;;;;7.75;4.07;;;;;;;;;;4950735;28;20361;-65
2022/04/23 08:56:43;;;;;;;8.32;3.90;;;;;;;;;;4950897;28;20362;-66
2022/04/23 08:59:11;;;;;;;5.57;3.58;;;;;;;;;;4950686;28;20437;-65
2022/04/23 09:01:37;;;;;;;8.52;4.05;;;;;;;;;;4950532;28;20132;-66
2022/04/23 09:04:04;;;;;;;7.43;3.67;;;;;;;;;;4950085;28;20033;-66
2022/04/23 09:06:37;;;;;;;7.80;3.45;;;;;;;;;;4933176;28;20512;-64
2022/04/23 09:09:13;;;;;;;8.98;4.28;;;;;;;;;;4932823;28;20443;-65
2022/04/23 09:11:42;;;;;;;7.95;3.88;;;;;;;;;;4932451;28;20528;-65
2022/04/23 09:14:08;;;;;;;7.70;3.97;;;;;;;;;;4949984;28;20469;-66
2022/04/23 09:25:10;;;;;;;8.10;3.85;;;;;;;;;;4950627;28;20564;-65
2022/04/23 09:27:36;;;;;;;6.13;3.47;;;;;;;;;;4949757;28;20380;-64
2022/04/23 09:30:06;;;;;;;8.02;4.03;;;;;;;;;;4950213;28;20093;-64
2022/04/23 09:32:32;;;;;;;7.57;4.60;;;;;;;;;;4949714;28;20377;-65
2022/04/23 09:35:09;;;;;;;6.70;4.00;;;;;;;;;;4950766;28;20473;-65
2022/04/23 09:40:23;;;;;;;5.95;3.22;;;;;;;;;;4949927;28;20103;-65
2022/04/23 09:42:56;;;;;;;6.70;3.47;;;;;;;;;;4949993;28;20350;-65
2022/04/23 09:45:21;;;;;;;6.72;3.65;;;;;;;;;;4932016;28;20453;-65
2022/04/23 09:47:47;;;;;;;7.82;4.30;;;;;;;;;;4949581;28;20469;-65
2022/04/23 09:50:16;;;;;;;5.72;3.30;;;;;;;;;;4949545;28;20524;-65
2022/04/23 09:52:42;;;;;;;7.90;3.85;;;;;;;;;;4949318;28;20388;-65
2022/04/23 09:55:08;;;;;;;7.22;3.58;;;;;;;;;;4949670;28;20322;-64
2022/04/23 09:57:34;;;;;;;6.40;3.47;;;;;;;;;;4949589;28;20030;-65
2022/04/23 09:59:59;;;;;;;6.82;3.20;;;;;;;;;;4948149;28;20049;-65
2022/04/23 10:02:25;;;;;;;6.40;4.30;;;;;;;;;;4949825;28;20290;-64
2022/04/23 10:04:54;;;;;;;8.27;4.15;;;;;;;;;;4931923;28;20399;-65
2022/04/23 10:07:20;;;;;;;5.00;3.28;;;;;;;;;;4949882;28;20413;-65
2022/04/23 10:09:48;;;;;;;7.80;3.63;;;;;;;;;;4931424;28;20473;-65
2022/04/23 10:12:16;;;;;;;6.70;4.03;;;;;;;;;;4949680;28;20050;-65
2022/04/23 10:14:46;;;;;;;5.70;3.67;;;;;;;;;;4945887;28;20437;-65
2022/04/23 10:17:14;;;;;;;6.05;3.75;;;;;;;;;;4931942;28;20029;-65
2022/04/23 10:19:40;;;;;;;6.50;3.47;;;;;;;;;;4949590;28;20176;-64
2022/04/23 10:22:19;;;;;;;9.75;3.35;;;;;;;;;;4949791;28;20061;-65
2022/04/23 10:24:54;;;;;;;;;;;;;;;;;;4932729;28;20061;-64
2022/04/23 10:27:19;;;;;;;5.43;3.13;;;;;;;;;;4949192;28;20344;-65
2022/04/23 10:29:45;;;;;;;8.15;3.60;;;;;;;;;;4931885;28;20347;-65
2022/04/23 10:32:10;;;;;;;6.45;3.53;;;;;;;;;;4949330;28;20368;-65
2022/04/23 10:34:35;;;;;;;7.40;3.35;;;;;;;;;;4949990;28;20461;-65
2022/04/23 10:37:14;;;;;;;6.72;3.30;;;;;;;;;;4949693;28;20389;-64
2022/04/23 10:39:40;;;;;;;7.75;3.70;;;;;;;;;;4949353;28;20349;-65
2022/04/23 10:42:06;;;;;;;5.43;3.28;;;;;;;;;;4931851;28;20421;-65
2022/04/23 10:44:31;;;;;;;6.70;2.63;;;;;;;;;;4949925;28;20372;-66
2022/04/23 10:46:58;;;;;;;6.60;3.60;;;;;;;;;;4949269;28;20341;-65
2022/04/23 10:49:25;;;;;;;4.63;2.78;;;;;;;;;;4950414;28;20457;-66
2022/04/23 10:51:52;;;;;;;7.82;3.38;;;;;;;;;;4949182;28;20952;-64
2022/04/23 10:54:21;;;;;;;6.35;3.50;;;;;;;;;;4949597;28;20442;-65
2022/04/23 10:56:57;;;;;;;4.95;3.10;;;;;;;;;;4953783;28;20436;-65
2022/04/23 10:59:32;;;;;;;6.53;3.80;;;;;;;;;;4952005;28;20456;-66
2022/04/23 11:02:05;;;;;;;6.57;2.95;;;;;;;;;;4952549;28;20396;-65
2022/04/23 11:04:32;;;;;;;5.85;3.53;;;;;;;;;;4952763;28;20414;-66
2022/04/23 11:12:22;;;;;;;5.95;3.47;;;;;;;;;;4952399;28;20030;-65
2022/04/23 11:14:48;;;;;;;4.45;3.13;;;;;;;;;;4952198;28;20487;-65
2022/04/23 11:17:44;;;;;;;5.45;2.88;;;;;;;;;;4934792;28;20461;-65
2022/04/23 11:20:13;;;;;;;5.82;3.15;;;;;;;;;;4952044;28;20441;-66
2022/04/23 11:22:39;;;;;;;4.93;3.13;;;;;;;;;;4952677;28;20414;-65
2022/04/23 11:25:05;;;;;;;4.57;3.03;;;;;;;;;;4934285;28;20460;-66
2022/04/23 11:27:38;;;;;;;6.53;3.17;;;;;;;;;;4952196;28;20466;-66
2022/04/23 11:30:06;;;;;;;5.90;3.10;;;;;;;;;;4953402;28;20313;-65
2022/04/23 11:32:33;;;;;;;4.68;2.60;;;;;;;;;;4952128;28;20437;-65
2022/04/23 11:35:06;;;;;;;6.25;3.20;;;;;;;;;;4952466;28;20529;-66
2022/04/23 11:37:38;;;;;;;5.68;3.08;;;;;;;;;;4951629;28;20084;-65
2022/04/23 11:40:08;;;;;;;5.57;2.95;;;;;;;;;;4952589;28;20329;-65
2022/04/23 11:42:46;;;;;;;4.53;2.75;;;;;;;;;;4951588;28;20433;-65
2022/04/23 11:45:14;;;;;;;5.72;3.05;;;;;;;;;;4951969;28;20511;-65
2022/04/23 11:47:40;;;;;;;5.07;3.15;;;;;;;;;;4951886;28;20344;-65
2022/04/23 11:50:11;;;;;;;4.65;2.72;;;;;;;;;;4951536;28;20367;-65
2022/04/23 11:52:37;;;;;;;6.32;3.30;;;;;;;;;;4951637;28;20516;-65
2022/04/23 11:55:03;;;;;;;3.90;2.95;;;;;;;;;;4951499;28;20321;-65
2022/04/23 11:57:28;;;;;;;4.95;2.65;;;;;;;;;;4952566;28;20053;-66
2022/04/23 11:59:59;;;;;;;4.53;2.85;;;;;;;;;;4950898;28;20358;-65
2022/04/23 12:02:29;;;;;;;4.78;2.53;;;;;;;;;;4951557;28;20413;-64
2022/04/23 12:04:57;;;;;;;4.15;2.63;;;;;;;;;;4933747;28;20030;-65
2022/04/23 12:07:23;;;;;;;5.20;2.50;;;;;;;;;;4950049;28;20446;-66
2022/04/23 12:09:51;;;;;;;3.47;2.35;;;;;;;;;;4951153;28;20449;-65
2022/04/23 12:12:25;;;;;;;5.43;2.85;;;;;;;;;;4952542;28;20440;-65
2022/04/23 12:14:55;;;;;;;6.60;3.17;;;;;;;;;;4951522;28;20453;-65
2022/04/23 12:17:29;;;;;;;4.35;2.08;;;;;;;;;;4951062;28;20088;-65
2022/04/23 12:19:57;;;;;;;3.13;2.28;;;;;;;;;;4951152;28;20687;-65
2022/04/23 12:22:31;;;;;;;4.40;2.80;;;;;;;;;;4951445;28;20369;-65
2022/04/23 12:25:16;;;;;;;3.92;2.80;;;;;;;;;;4951067;28;20022;-65
2022/04/23 12:42:11;;;;;;;5.65;3.08;;;;;;;;;;4950662;28;20468;-65
2022/04/23 12:44:46;;;;;;;5.18;3.08;;;;;;;;;;4951159;28;20331;-65
2022/04/23 12:47:33;;;;;;;4.15;2.80;;;;;;;;;;4951644;28;20490;-66
2022/04/23 12:50:02;;;;;;;4.55;2.90;;;;;;;;;;4950401;28;20372;-65
2022/04/23 12:52:28;;;;;;;4.43;2.63;;;;;;;;;;4952442;28;20341;-66
2022/04/23 12:55:21;;;;;;;3.67;2.33;;;;;;;;;;4951565;28;20385;-65
2022/04/23 12:57:48;;;;;;;5.15;2.47;;;;;;;;;;4950534;28;20464;-65
2022/04/23 13:00:16;;;;;;;3.40;2.45;;;;;;;;;;4950454;28;20496;-64
2022/04/23 13:02:43;;;;;;;3.85;2.40;;;;;;;;;;4950333;28;20341;-65
2022/04/23 13:05:10;;;;;;;4.15;2.30;;;;;;;;;;4951001;28;20472;-65
2022/04/23 13:10:19;;;;;;;3.15;2.28;;;;;;;;;;4951638;28;20460;-64
2022/04/23 13:12:45;;;;;;;6.15;2.72;;;;;;;;;;4950354;28;20465;-65
2022/04/23 13:15:11;;;;;;;5.03;2.50;;;;;;;;;;4951349;28;20465;-65
2022/04/23 13:17:38;;;;;;;5.00;3.10;;;;;;;;;;4950586;28;20456;-65
2022/04/23 13:20:06;;;;;;;5.80;2.83;;;;;;;;;;4950901;28;20460;-65
2022/04/23 13:22:32;;;;;;;3.42;2.42;;;;;;;;;;4949968;28;20372;-65
2022/04/23 13:24:57;;;;;;;5.03;2.90;;;;;;;;;;4950071;28;20378;-65
2022/04/23 13:27:23;;;;;;;4.25;2.80;;;;;;;;;;4950068;28;20337;-64
2022/04/23 13:29:48;;;;;;;7.22;2.80;;;;;;;;;;4950770;28;20333;-65
2022/04/23 13:32:14;;;;;;;5.90;2.97;;;;;;;;;;4949814;28;20368;-65
2022/04/23 13:34:39;;;;;;;3.72;2.67;;;;;;;;;;4949933;28;20414;-65
2022/04/23 13:37:04;;;;;;;5.65;3.85;;;;;;;;;;4950453;28;20440;-65
2022/04/23 13:39:30;;;;;;;4.90;2.65;;;;;;;;;;4949609;28;20466;-64
2022/04/23 13:41:55;;;;;;;3.70;3.10;;;;;;;;;;4949899;28;20437;-65
2022/04/23 13:44:20;;;;;;;4.43;2.88;;;;;;;;;;4950665;28;20410;-65
2022/04/23 13:46:49;;;;;;;3.05;2.25;;;;;;;;;;4949763;28;20459;-65
2022/04/23 13:49:14;;;;;;;4.40;2.27;;;;;;;;;;4949558;28;20345;-64
2022/04/23 13:51:39;;;;;;;4.75;2.50;;;;;;;;;;4932336;28;20104;-65
2022/04/23 13:54:05;;;;;;;4.28;2.72;;;;;;;;;;4949755;28;20455;-65
2022/04/23 13:56:30;;;;;;;3.85;2.60;;;;;;;;;;4950315;28;20026;-66
2022/04/23 13:58:55;;;;;;;3.55;2.20;;;;;;;;;;4949270;28;20060;-65
2022/04/23 14:01:21;;;;;;;3.28;2.38;;;;;;;;;;4950267;28;20459;-65
2022/04/23 14:11:58;;;;;;;4.72;2.40;;;;;;;;;;4949557;28;20116;-65
2022/04/23 14:14:25;;;;;;;3.53;2.75;;;;;;;;;;4949509;28;20457;-65
2022/04/23 14:16:50;;;;;;;4.72;2.67;;;;;;;;;;4949983;28;20429;-64
2022/04/23 14:19:17;;;;;;;4.03;1.95;;;;;;;;;;4949951;28;20500;-65
2022/04/23 14:21:42;;;;;;;4.00;2.85;;;;;;;;;;4950160;28;20516;-66
2022/04/23 14:24:08;;;;;;;3.70;2.58;;;;;;;;;;4949826;28;20325;-65
2022/04/23 14:26:33;;;;;;;3.03;2.28;;;;;;;;;;4949383;28;20033;-65
2022/04/23 14:28:58;;;;;;;3.55;2.67;;;;;;;;;;4949749;28;20417;-65
2022/04/23 14:31:24;;;;;;;3.10;2.13;;;;;;;;;;4953906;28;20038;-65
2022/04/23 14:33:49;;;;;;;4.63;2.72;;;;;;;;;;4953066;28;20109;-65
2022/04/23 14:36:14;;;;;;;4.30;2.65;;;;;;;;;;4953086;28;20463;-65
2022/04/23 14:38:41;;;;;;;3.25;2.28;;;;;;;;;;4952859;28;20434;-65
2022/04/23 14:41:06;;;;;;;3.97;2.42;;;;;;;;;;4952737;28;20370;-66
2022/04/23 14:43:32;;;;;;;4.20;2.40;;;;;;;;;;4952999;28;20459;-65
2022/04/23 14:45:57;;;;;;;4.05;2.50;;;;;;;;;;4953955;28;20171;-65
2022/04/23 14:48:23;;;;;;;3.33;2.33;;;;;;;;;;4952749;28;20327;-65
2022/04/23 14:53:32;;;;;;;2.72;2.28;;;;;;;;;;4953618;28;20453;-65
2022/04/23 14:55:57;;;;;;;3.70;2.33;;;;;;;;;;4952681;28;20419;-65
2022/04/23 14:58:22;;;;;;;5.63;2.03;;;;;;;;;;4953099;28;20030;-65
2022/04/23 15:00:48;;;;;;;4.45;2.33;;;;;;;;;;4953066;28;20151;-67
2022/04/23 15:03:13;;;;;;;4.88;2.55;;;;;;;;;;4954230;28;20464;-65
2022/04/23 15:05:41;;;;;;;4.47;2.63;;;;;;;;;;4952785;28;20523;-65
2022/04/23 15:08:07;;;;;;;5.57;2.38;;;;;;;;;;4952379;28;20493;-65
2022/04/23 15:10:32;;;;;;;5.78;2.50;;;;;;;;;;4953222;28;20467;-66
2022/04/23 15:12:58;;;;;;;4.65;2.40;;;;;;;;;;4952331;28;20030;-64
2022/04/23 15:15:24;;;;;;;4.63;2.42;;;;;;;;;;4951990;28;20056;-66
2022/04/23 15:17:49;;;;;;;3.85;2.60;;;;;;;;;;4952640;28;20092;-65
2022/04/23 15:20:14;;;;;;;3.33;2.05;;;;;;;;;;4951945;28;20064;-65
2022/04/23 15:22:40;;;;;;;3.72;2.67;;;;;;;;;;4934339;28;20353;-65
2022/04/23 15:25:05;;;;;;;2.72;2.28;;;;;;;;;;4953101;28;20372;-65
2022/04/23 15:27:33;;;;;;;3.88;2.40;;;;;;;;;;4951701;28;20413;-64